Time;durP1;ratioP1;P1;durP2;ratioP2;P2;SDS_P1;SDS_P2;PMS_P1;PMS_P2;Temp;Humidity;BMP_temperature;BMP_pressure;BME280_temperature;BME280_humidity;BME280_pressure;Samples;Min_cycle;Max_cycle;Signal;HPM_P1;HPM_P2
2021/04/27 00:02:07;;;;;;;18.45;7.80;;;;;;;1.65;73.34;99312.48;1784266;80;21480;-59
2021/04/27 00:04:34;;;;;;;12.40;5.95;;;;;;;1.64;73.28;99307.33;1784148;80;22348;-59
2021/04/27 00:07:02;;;;;;;14.60;6.08;;;;;;;1.63;73.32;99311.11;1784036;80;20945;-58
2021/04/27 00:09:31;;;;;;;15.80;6.28;;;;;;;1.61;72.96;99315.44;1784054;80;21055;-58
2021/04/27 00:12:00;;;;;;;14.98;6.42;;;;;;;1.60;72.45;99307.58;1784126;79;20921;-59
2021/04/27 00:14:28;;;;;;;14.33;6.65;;;;;;;1.61;72.16;99310.56;1784168;80;21123;-58
2021/04/27 00:16:56;;;;;;;13.25;6.10;;;;;;;1.60;71.93;99311.09;1784139;80;22193;-58
2021/04/27 00:19:24;;;;;;;20.40;6.67;;;;;;;1.58;71.83;99313.25;1784116;79;20953;-58
2021/04/27 00:21:52;;;;;;;16.20;6.78;;;;;;;1.55;71.56;99321.89;1784107;80;21068;-58
2021/04/27 00:24:20;;;;;;;12.75;5.87;;;;;;;1.52;71.65;99320.25;1784114;80;21068;-58
2021/04/27 00:26:47;;;;;;;15.30;6.33;;;;;;;1.49;71.61;99319.42;1784073;79;21160;-58
2021/04/27 00:29:15;;;;;;;20.05;7.80;;;;;;;1.47;71.58;99324.28;1784107;80;23448;-58
2021/04/27 00:31:43;;;;;;;29.10;8.80;;;;;;;1.43;71.72;99325.34;1784032;79;22046;-59
2021/04/27 00:34:11;;;;;;;23.30;8.00;;;;;;;1.41;71.80;99327.48;1784104;80;21056;-58
2021/04/27 00:36:38;;;;;;;13.58;6.15;;;;;;;1.41;71.80;99326.14;1784099;80;21119;-58
2021/04/27 00:39:06;;;;;;;14.47;6.25;;;;;;;1.40;71.61;99327.21;1784163;80;21571;-59
2021/04/27 00:41:33;;;;;;;14.38;7.15;;;;;;;1.43;71.71;99331.28;1784087;80;21322;-59
2021/04/27 00:44:03;;;;;;;11.15;5.37;;;;;;;1.45;71.49;99331.30;1784042;80;20953;-59
2021/04/27 00:46:30;;;;;;;13.75;6.53;;;;;;;1.46;71.64;99328.88;1784079;80;21108;-58
2021/04/27 00:48:59;;;;;;;11.25;5.37;;;;;;;1.49;71.72;99328.89;1784189;80;21124;-58
2021/04/27 00:51:28;;;;;;;14.70;6.72;;;;;;;1.49;71.87;99328.89;1784234;80;21112;-58
2021/04/27 00:53:56;;;;;;;12.07;6.42;;;;;;;1.49;72.20;99333.76;1784157;80;22363;-59
2021/04/27 00:56:25;;;;;;;14.10;6.70;;;;;;;1.50;72.41;99336.74;1784059;80;21178;-58
2021/04/27 00:58:53;;;;;;;12.20;6.42;;;;;;;1.49;72.59;99332.41;1784108;80;21056;-58
2021/04/27 01:01:21;;;;;;;15.30;6.40;;;;;;;1.49;72.96;99331.59;1784106;80;21056;-58
2021/04/27 01:03:50;;;;;;;13.50;6.87;;;;;;;1.47;73.55;99327.80;1784071;80;21048;-59
2021/04/27 01:06:18;;;;;;;15.55;6.80;;;;;;;1.48;73.56;99333.48;1784029;80;21567;-59
2021/04/27 01:08:58;;;;;;;14.95;6.35;;;;;;;1.49;73.73;99334.30;1791656;79;20940;-59
2021/04/27 01:11:43;;;;;;;20.00;7.83;;;;;;;1.48;73.88;99335.38;1798339;79;21035;-59
2021/04/27 01:14:36;;;;;;;15.45;6.70;;;;;;;1.46;74.12;99333.47;1798347;78;21079;-59
2021/04/27 01:17:10;;;;;;;16.00;7.33;;;;;;;1.43;74.38;99336.70;1798452;79;21471;-59
2021/04/27 01:19:59;;;;;;;13.85;6.70;;;;;;;1.37;74.49;99341.80;1769853;79;21185;-59
2021/04/27 01:22:54;;;;;;;10.93;5.90;;;;;;;1.31;74.50;99339.05;1798288;78;21107;-58
2021/04/27 01:25:36;;;;;;;14.80;6.83;;;;;;;1.24;74.96;99342.52;1755759;79;20937;-59
2021/04/27 01:28:12;;;;;;;14.30;6.47;;;;;;;1.24;75.44;99336.30;1873521;76;22753;-59
2021/04/27 01:30:41;;;;;;;11.93;6.05;;;;;;;1.15;75.41;99337.34;1841731;77;20901;-60
2021/04/27 01:33:20;;;;;;;15.60;6.20;;;;;;;1.11;75.50;99340.28;1841821;78;21486;-60
2021/04/27 01:35:50;;;;;;;16.25;6.75;;;;;;;1.08;75.61;99335.39;1841664;77;21019;-60
2021/04/27 01:38:19;;;;;;;12.95;6.22;;;;;;;1.05;75.72;99340.50;1785218;78;21047;-59
2021/04/27 01:40:48;;;;;;;13.38;6.65;;;;;;;0.99;75.84;99336.41;1841761;78;20948;-60
2021/04/27 01:43:18;;;;;;;21.10;10.20;;;;;;;0.95;76.10;99334.48;1841710;77;20976;-60
2021/04/27 01:45:50;;;;;;;26.05;12.00;;;;;;;0.89;76.24;99339.02;1812124;78;21354;-60
2021/04/27 01:48:19;;;;;;;18.40;8.93;;;;;;;0.85;76.42;99340.61;1841663;77;20955;-60
2021/04/27 01:50:47;;;;;;;27.75;8.95;;;;;;;0.79;76.53;99336.23;1841758;78;20972;-60
2021/04/27 01:53:34;;;;;;;31.17;11.08;;;;;;;0.73;76.68;99340.50;1841665;77;21024;-60
2021/04/27 01:56:02;;;;;;;35.35;12.53;;;;;;;0.67;76.88;99346.39;1841681;77;20924;-60
2021/04/27 01:58:30;;;;;;;36.98;11.68;;;;;;;0.63;77.05;99346.62;1841638;78;21471;-60
2021/04/27 02:00:59;;;;;;;34.75;11.25;;;;;;;0.58;77.21;99347.91;1841539;78;21062;-60
2021/04/27 02:03:28;;;;;;;29.40;10.70;;;;;;;0.52;77.40;99344.38;1841662;78;20992;-60
2021/04/27 02:05:55;;;;;;;19.48;8.18;;;;;;;0.43;77.52;99348.61;1841590;77;21511;-60
2021/04/27 02:08:25;;;;;;;17.62;7.53;;;;;;;0.32;77.91;99349.03;1841664;78;21530;-60
2021/04/27 02:10:58;;;;;;;16.87;8.00;;;;;;;0.21;78.25;99351.87;1841610;77;21118;-60
2021/04/27 02:13:26;;;;;;;15.98;6.17;;;;;;;0.14;78.71;99351.24;1819288;78;21550;-60
2021/04/27 02:16:04;;;;;;;10.65;5.67;;;;;;;0.10;79.02;99348.77;1808663;79;20928;-60
2021/04/27 02:18:39;;;;;;;10.82;5.95;;;;;;;0.03;79.24;99348.14;1808583;79;20920;-60
2021/04/27 02:21:09;;;;;;;13.40;6.90;;;;;;;-0.03;79.52;99348.11;1808575;79;20889;-60
2021/04/27 02:23:55;;;;;;;21.77;8.60;;;;;;;-0.10;79.73;99354.23;1808649;79;23571;-59
2021/04/27 02:26:25;;;;;;;25.25;10.60;;;;;;;-0.19;80.04;99344.94;1808106;79;21174;-59
2021/04/27 02:28:54;;;;;;;28.07;10.15;;;;;;;-0.26;80.28;99347.53;1807996;79;21133;-59
2021/04/27 02:31:23;;;;;;;28.83;10.88;;;;;;;-0.35;80.48;99344.45;1808559;79;20936;-60
2021/04/27 02:33:51;;;;;;;38.10;12.37;;;;;;;-0.43;80.83;99347.57;1808671;79;21475;-60
2021/04/27 02:36:19;;;;;;;29.27;11.63;;;;;;;-0.51;81.14;99348.00;1808681;79;22274;-60
2021/04/27 02:38:54;;;;;;;44.67;13.53;;;;;;;-0.55;81.74;99349.55;1807496;79;21597;-60
2021/04/27 02:41:30;;;;;;;24.57;9.63;;;;;;;-0.53;82.54;99343.38;1807988;79;21039;-60
2021/04/27 02:44:01;;;;;;;25.45;10.43;;;;;;;-0.54;82.73;99353.88;1808022;79;21490;-60
2021/04/27 02:46:29;;;;;;;27.52;9.83;;;;;;;-0.53;83.13;99346.08;1808093;79;21062;-60
2021/04/27 02:48:58;;;;;;;22.70;9.45;;;;;;;-0.53;83.11;99350.94;1807405;79;21369;-60
2021/04/27 02:51:27;;;;;;;25.12;9.93;;;;;;;-0.53;83.28;99354.98;1807970;79;21011;-60
2021/04/27 02:54:00;;;;;;;34.15;11.60;;;;;;;-0.55;83.50;99349.55;1807746;79;21478;-60
2021/04/27 02:56:31;;;;;;;34.92;12.05;;;;;;;-0.56;83.57;99353.31;1808013;79;20912;-60
2021/04/27 02:59:00;;;;;;;35.90;13.22;;;;;;;-0.60;83.64;99353.03;1808037;79;20940;-60
2021/04/27 03:01:28;;;;;;;35.23;12.85;;;;;;;-0.61;83.94;99355.97;1807990;79;21070;-60
2021/04/27 03:03:58;;;;;;;42.03;14.05;;;;;;;-0.61;84.32;99347.88;1807961;79;20939;-60
2021/04/27 03:06:29;;;;;;;49.08;16.55;;;;;;;-0.61;84.49;99353.27;1807768;79;20924;-61
2021/04/27 03:09:02;;;;;;;46.18;17.35;;;;;;;-0.63;84.69;99344.08;1798612;79;20944;-61
2021/04/27 03:11:30;;;;;;;57.27;20.00;;;;;;;-0.62;85.08;99345.72;1808012;79;21086;-58
2021/04/27 03:13:58;;;;;;;52.33;18.80;;;;;;;-0.61;85.53;99345.19;1807937;78;21155;-58
2021/04/27 03:16:25;;;;;;;42.75;15.25;;;;;;;-0.62;85.36;99338.98;1807911;79;21003;-58
2021/04/27 03:18:53;;;;;;;23.98;10.03;;;;;;;-0.63;85.53;99346.78;1807961;79;21581;-58
2021/04/27 03:21:22;;;;;;;28.87;10.20;;;;;;;-0.62;85.76;99344.38;1807977;79;20928;-58
2021/04/27 03:23:54;;;;;;;25.77;9.68;;;;;;;-0.56;86.07;99347.92;1807978;79;20936;-58
2021/04/27 03:26:22;;;;;;;36.03;10.58;;;;;;;-0.50;86.39;99344.23;1807917;79;21355;-60
2021/04/27 03:28:54;;;;;;;28.10;12.35;;;;;;;-0.41;86.55;99349.48;1804841;78;21693;-61
2021/04/27 03:31:23;;;;;;;28.05;12.03;;;;;;;-0.32;86.67;99345.30;1806793;79;21557;-60
2021/04/27 03:33:51;;;;;;;29.27;13.25;;;;;;;-0.23;86.83;99351.90;1806189;79;21498;-58
2021/04/27 03:36:19;;;;;;;19.07;9.83;;;;;;;-0.13;86.83;99357.42;1806205;78;20925;-59
2021/04/27 03:38:49;;;;;;;13.22;7.03;;;;;;;-0.05;86.63;99355.64;1806112;79;21195;-58
2021/04/27 03:41:17;;;;;;;13.20;6.42;;;;;;;0.04;86.49;99353.82;1806150;79;20992;-59
2021/04/27 03:43:47;;;;;;;13.38;6.95;;;;;;;0.12;86.38;99347.45;1806084;79;20977;-59
2021/04/27 03:46:16;;;;;;;15.85;6.65;;;;;;;0.23;86.40;99355.13;1806133;79;21003;-61
2021/04/27 03:48:44;;;;;;;12.25;6.97;;;;;;;0.33;86.15;99349.84;1806145;78;21593;-61
2021/04/27 03:51:12;;;;;;;19.07;7.28;;;;;;;0.41;85.86;99356.14;1806273;79;21406;-60
2021/04/27 03:53:43;;;;;;;16.10;7.78;;;;;;;0.51;85.69;99354.09;1806213;79;20945;-60
2021/04/27 03:56:13;;;;;;;13.62;6.95;;;;;;;0.61;85.44;99352.27;1805699;78;20897;-60
2021/04/27 03:58:41;;;;;;;12.85;6.62;;;;;;;0.70;85.05;99354.52;1806211;79;20933;-60
2021/04/27 04:01:11;;;;;;;13.85;6.58;;;;;;;0.77;84.79;99358.64;1806266;79;20925;-61
2021/04/27 04:03:42;;;;;;;16.02;7.65;;;;;;;0.83;84.61;99354.91;1806233;79;21328;-58
2021/04/27 04:06:12;;;;;;;17.77;8.13;;;;;;;0.92;84.66;99355.27;1806247;79;21515;-58
2021/04/27 04:08:58;;;;;;;15.15;7.08;;;;;;;1.01;84.19;99360.48;1793013;79;20920;-58
2021/04/27 04:11:27;;;;;;;16.45;6.72;;;;;;;1.08;83.83;99367.02;1806302;78;21531;-58
2021/04/27 04:13:55;;;;;;;12.47;6.08;;;;;;;1.11;83.01;99364.62;1777197;79;21011;-58
2021/04/27 04:16:23;;;;;;;13.35;6.70;;;;;;;1.13;82.60;99365.17;1806236;79;21494;-58
2021/04/27 04:18:52;;;;;;;17.55;7.70;;;;;;;1.14;82.91;99368.16;1806150;79;21491;-58
2021/04/27 04:21:22;;;;;;;16.50;7.53;;;;;;;1.17;82.83;99372.20;1806220;78;20919;-58
2021/04/27 04:23:53;;;;;;;14.23;6.30;;;;;;;1.21;82.75;99366.55;1732772;82;20934;-58
2021/04/27 04:26:21;;;;;;;15.08;6.85;;;;;;;1.25;82.39;99371.73;1749021;82;21480;-58
2021/04/27 04:29:08;;;;;;;16.50;7.03;;;;;;;1.30;82.17;99369.88;1749607;80;21336;-60
2021/04/27 04:31:37;;;;;;;13.80;7.10;;;;;;;1.37;82.34;99375.06;1719574;82;21001;-61
2021/04/27 04:34:25;;;;;;;13.93;7.30;;;;;;;1.43;81.79;99374.56;1742871;82;21022;-59
2021/04/27 04:37:11;;;;;;;15.38;7.45;;;;;;;1.45;81.30;99371.88;1740540;80;20934;-58
2021/04/27 04:39:58;;;;;;;10.15;5.42;;;;;;;1.48;81.74;99382.72;1743211;81;21169;-58
2021/04/27 04:42:39;;;;;;;11.85;6.08;;;;;;;1.50;81.45;99373.80;1818888;77;22631;-60
2021/04/27 04:45:26;;;;;;;14.65;5.28;;;;;;;1.48;81.51;99377.30;1696879;83;21131;-59
2021/04/27 04:48:19;;;;;;;11.12;6.53;;;;;;;1.54;81.47;99380.33;1868234;76;22736;-58
2021/04/27 04:51:01;;;;;;;11.45;6.03;;;;;;;1.54;81.67;99376.27;1757788;78;21036;-60
2021/04/27 04:53:36;;;;;;;14.13;6.17;;;;;;;1.58;81.24;99384.14;1839345;78;21269;-60
2021/04/27 04:56:04;;;;;;;11.38;6.12;;;;;;;1.61;81.00;99379.56;1811591;78;20988;-60
2021/04/27 04:58:35;;;;;;;16.48;6.50;;;;;;;1.61;80.74;99376.85;1841720;78;21106;-60
2021/04/27 05:01:06;;;;;;;13.95;5.62;;;;;;;1.62;80.92;99369.83;1841954;78;20898;-60
2021/04/27 05:03:34;;;;;;;9.28;5.40;;;;;;;1.67;81.03;99375.81;1841694;78;21542;-61
2021/04/27 05:06:23;;;;;;;11.43;6.50;;;;;;;1.73;80.72;99373.41;1841672;78;21183;-64
2021/04/27 05:08:55;;;;;;;13.45;6.55;;;;;;;1.79;80.70;99369.63;1774896;78;20929;-61
2021/04/27 05:11:42;;;;;;;11.28;6.20;;;;;;;1.89;80.95;99375.09;1841666;78;21526;-62
2021/04/27 05:14:27;;;;;;;14.43;6.55;;;;;;;2.00;80.96;99371.90;1808615;78;21094;-61
2021/04/27 05:16:59;;;;;;;15.55;7.67;;;;;;;2.11;80.59;99377.64;1808632;79;22197;-60
2021/04/27 05:19:27;;;;;;;12.17;6.20;;;;;;;2.22;80.61;99375.79;1808899;79;21398;-62
2021/04/27 05:21:55;;;;;;;11.22;6.00;;;;;;;2.33;80.23;99372.01;1808558;79;20983;-60
2021/04/27 05:24:25;;;;;;;11.30;6.47;;;;;;;2.44;79.25;99364.73;1808579;79;21008;-62
2021/04/27 05:26:53;;;;;;;11.55;5.12;;;;;;;2.54;79.26;99365.56;1808547;79;21023;-60
2021/04/27 05:29:22;;;;;;;12.20;5.50;;;;;;;2.69;78.18;99369.40;1797936;78;21217;-62
2021/04/27 05:31:52;;;;;;;10.50;5.40;;;;;;;2.78;77.32;99366.43;1780001;78;21542;-62
2021/04/27 05:34:20;;;;;;;8.35;4.62;;;;;;;2.84;76.62;99363.46;1776188;80;20959;-62
2021/04/27 05:36:48;;;;;;;6.15;4.40;;;;;;;2.91;75.81;99360.45;1776194;80;21126;-62
2021/04/27 05:39:16;;;;;;;8.33;4.40;;;;;;;2.99;75.27;99357.20;1776237;80;21577;-62
2021/04/27 05:41:43;;;;;;;6.83;4.12;;;;;;;3.10;74.49;99355.31;1776385;80;21660;-63
2021/04/27 05:44:11;;;;;;;9.55;4.40;;;;;;;3.18;74.52;99364.27;1776567;80;21201;-61
2021/04/27 05:46:39;;;;;;;7.40;4.22;;;;;;;3.29;74.07;99364.53;1776493;79;21625;-61
2021/04/27 05:49:07;;;;;;;5.95;3.87;;;;;;;3.48;75.23;99362.86;1802632;78;20940;-68
2021/04/27 05:51:35;;;;;;;9.90;4.95;;;;;;;3.63;72.72;99362.84;1787966;79;21003;-63
2021/04/27 05:54:04;;;;;;;8.18;3.90;;;;;;;3.72;72.21;99369.06;1776750;80;21498;-61
2021/04/27 05:56:34;;;;;;;7.03;3.60;;;;;;;3.79;70.85;99365.52;1805106;79;21451;-61
2021/04/27 05:59:02;;;;;;;8.53;3.90;;;;;;;3.83;69.66;99361.98;1808117;79;20936;-61
2021/04/27 06:01:30;;;;;;;7.53;3.47;;;;;;;3.85;69.29;99372.02;1794172;79;21499;-61
2021/04/27 06:03:58;;;;;;;5.92;3.45;;;;;;;3.92;69.47;99367.66;1776085;80;21490;-61
2021/04/27 06:06:26;;;;;;;3.80;2.75;;;;;;;4.00;68.69;99358.95;1774950;80;21189;-63
2021/04/27 06:08:55;;;;;;;5.83;3.27;;;;;;;4.06;67.29;99363.23;1775595;80;21330;-61
2021/04/27 06:11:23;;;;;;;6.03;3.10;;;;;;;4.13;66.18;99367.02;1775760;80;21027;-61
2021/04/27 06:13:51;;;;;;;7.08;3.10;;;;;;;4.21;65.69;99362.37;1775792;80;21082;-61
2021/04/27 06:16:19;;;;;;;7.90;3.62;;;;;;;4.32;64.99;99361.23;1775858;80;21083;-60
2021/04/27 06:18:48;;;;;;;10.63;3.37;;;;;;;4.42;64.44;99357.11;1775295;80;21165;-61
2021/04/27 06:21:16;;;;;;;4.62;2.85;;;;;;;4.52;63.50;99352.17;1776037;80;21513;-67
2021/04/27 06:23:45;;;;;;;7.67;2.80;;;;;;;4.64;63.13;99345.27;1776068;80;21019;-61
2021/04/27 06:26:13;;;;;;;8.43;3.40;;;;;;;4.79;61.80;99351.16;1784637;79;20983;-61
2021/04/27 06:28:42;;;;;;;4.75;2.75;;;;;;;4.83;60.25;99351.41;1802321;79;21593;-61
2021/04/27 06:31:10;;;;;;;4.53;3.02;;;;;;;4.91;61.42;99354.88;1807981;79;20943;-61
2021/04/27 06:33:38;;;;;;;5.03;2.42;;;;;;;5.07;59.29;99352.31;1799457;79;21207;-60
2021/04/27 06:36:07;;;;;;;9.05;3.35;;;;;;;5.18;59.58;99355.77;1776053;80;20955;-63
2021/04/27 06:38:37;;;;;;;3.50;2.37;;;;;;;5.22;58.32;99339.11;1776971;78;20935;-64
2021/04/27 06:41:05;;;;;;;5.28;2.60;;;;;;;5.30;57.41;99343.39;1790168;79;21554;-63
2021/04/27 06:43:33;;;;;;;5.50;2.87;;;;;;;5.30;57.41;99343.39;1789673;79;21178;-63
2021/04/27 06:46:01;;;;;;;12.68;5.87;;;;;;;5.42;57.49;99344.92;1772843;79;21471;-66
2021/04/27 06:48:34;;;;;;;5.28;3.08;;;;;;;5.47;56.72;99344.87;1779842;79;21023;-63
2021/04/27 06:51:01;;;;;;;5.00;2.50;;;;;;;5.50;54.86;99344.30;1780821;80;21011;-83
2021/04/27 06:53:30;;;;;;;5.67;2.83;;;;;;;5.50;56.61;99342.39;1781058;80;21098;-74
2021/04/27 06:55:59;;;;;;;5.17;3.15;;;;;;;5.60;54.46;99343.65;1781219;80;21063;-69
2021/04/27 06:58:27;;;;;;;5.92;3.37;;;;;;;5.66;53.89;99338.97;1781082;79;21193;-70
2021/04/27 07:00:55;;;;;;;10.85;3.08;;;;;;;5.70;52.94;99345.45;1781247;80;21078;-71
2021/04/27 07:03:22;;;;;;;4.15;2.00;;;;;;;5.73;53.44;99349.52;1781054;80;21528;-65
2021/04/27 07:05:50;;;;;;;3.72;1.80;;;;;;;5.82;53.11;99347.20;1781162;80;21011;-69
2021/04/27 07:08:17;;;;;;;3.45;2.00;;;;;;;5.93;51.64;99343.85;1780960;80;20928;-68
2021/04/27 07:10:47;;;;;;;4.08;2.10;;;;;;;6.12;52.32;99341.99;1781035;80;21470;-68
2021/04/27 07:13:15;;;;;;;3.60;2.00;;;;;;;6.12;52.32;99341.99;1780987;80;21027;-65
2021/04/27 07:15:42;;;;;;;2.87;1.90;;;;;;;6.58;50.82;99342.18;1781243;79;21028;-64
2021/04/27 07:18:10;;;;;;;5.75;2.00;;;;;;;6.75;49.81;99344.40;1755058;80;21676;-66
2021/04/27 07:20:38;;;;;;;6.12;2.80;;;;;;;6.75;49.81;99344.40;1781300;80;20947;-64
2021/04/27 07:23:07;;;;;;;3.30;2.25;;;;;;;6.79;48.39;99333.16;1781250;80;21194;-67
2021/04/27 07:25:36;;;;;;;5.95;2.85;;;;;;;6.77;47.66;99340.83;1781069;79;21577;-67
2021/04/27 07:28:04;;;;;;;6.03;3.08;;;;;;;6.77;49.39;99337.28;1781150;80;21011;-65
2021/04/27 07:30:33;;;;;;;6.85;2.77;;;;;;;6.89;47.99;99336.28;1781158;80;21580;-61
2021/04/27 07:33:01;;;;;;;2.75;1.80;;;;;;;6.94;47.35;99341.08;1781269;80;21475;-70
2021/04/27 07:35:29;;;;;;;4.97;2.52;;;;;;;6.99;49.25;99334.73;1781318;80;21469;-68
2021/04/27 07:40:37;;;;;;;5.95;2.47;;;;;;;7.33;46.40;99335.00;1888173;76;22693;-62
2021/04/27 07:43:04;;;;;;;5.37;2.52;;;;;;;7.37;47.49;99332.74;1775132;80;21477;-63
2021/04/27 07:45:34;;;;;;;3.42;2.30;;;;;;;7.48;46.48;99332.82;1849057;77;21140;-61
2021/04/27 07:48:05;;;;;;;6.45;2.10;;;;;;;7.67;46.67;99334.64;1849333;77;21096;-63
2021/04/27 07:50:34;;;;;;;3.20;1.65;;;;;;;7.97;45.68;99330.53;1849465;77;20958;-62
2021/04/27 07:53:03;;;;;;;2.75;1.60;;;;;;;8.31;44.29;99332.25;1849359;77;21005;-63
2021/04/27 07:55:31;;;;;;;4.47;1.60;;;;;;;8.66;44.24;99326.60;1849454;77;21658;-67
2021/04/27 07:58:01;;;;;;;1.92;1.30;;;;;;;9.02;42.42;99332.03;1849393;77;21369;-67
2021/04/27 08:00:29;;;;;;;2.72;1.50;;;;;;;9.39;42.25;99324.53;1849189;77;21850;-61
2021/04/27 08:02:58;;;;;;;4.15;1.82;;;;;;;9.80;41.13;99330.56;1836010;77;20958;-61
2021/04/27 08:05:27;;;;;;;1.65;1.20;;;;;;;10.10;39.15;99326.14;1827110;77;21473;-64
2021/04/27 08:07:55;;;;;;;3.83;1.30;;;;;;;10.31;38.29;99327.77;1849187;77;21148;-61
2021/04/27 08:10:23;;;;;;;2.58;1.32;;;;;;;10.42;36.33;99326.31;1806793;79;21130;-61
2021/04/27 08:12:52;;;;;;;4.03;1.42;;;;;;;10.45;37.12;99325.67;1849505;77;20993;-66
2021/04/27 08:15:24;;;;;;;1.75;1.10;;;;;;;10.59;37.70;99320.86;1806682;79;21097;-61
2021/04/27 08:17:52;;;;;;;;;;;;;;;10.80;36.55;99318.30;1852397;77;21603;-63
2021/04/27 08:20:21;;;;;;;1.87;1.20;;;;;;;10.77;34.62;99326.36;1849438;77;20130;-63
2021/04/27 08:22:49;;;;;;;1.37;1.10;;;;;;;10.51;35.30;99334.00;1806815;79;21373;-61
2021/04/27 08:25:18;;;;;;;2.27;1.37;;;;;;;10.43;35.62;99332.05;1849529;77;21376;-62
2021/04/27 08:27:47;;;;;;;3.58;1.50;;;;;;;10.34;35.51;99324.95;1849503;77;21477;-63
2021/04/27 08:30:20;;;;;;;3.70;1.55;;;;;;;10.33;34.26;99331.00;1806612;79;21092;-61
2021/04/27 08:32:49;;;;;;;1.35;0.95;;;;;;;10.25;35.05;99335.34;1848275;77;21009;-62
2021/04/27 08:35:16;;;;;;;2.12;1.20;;;;;;;10.27;33.52;99324.61;1845809;77;21194;-63
2021/04/27 08:37:44;;;;;;;2.17;1.42;;;;;;;10.31;34.61;99326.96;1849333;77;21480;-62
2021/04/27 08:40:13;;;;;;;4.65;1.75;;;;;;;10.41;35.55;99326.63;1849250;77;21053;-61
2021/04/27 08:42:46;;;;;;;1.62;1.17;;;;;;;10.47;34.98;99319.30;1849048;77;21100;-62
2021/04/27 08:45:13;;;;;;;5.15;2.00;;;;;;;10.34;33.03;99327.13;1838972;77;21560;-62
2021/04/27 08:47:41;;;;;;;1.65;1.27;;;;;;;10.10;34.04;99323.96;1826238;77;21405;-63
2021/04/27 08:50:11;;;;;;;3.20;1.17;;;;;;;9.94;34.27;99332.61;1821869;77;21965;-62
2021/04/27 08:52:39;;;;;;;3.17;1.30;;;;;;;9.89;34.62;99330.01;1829352;77;21005;-62
2021/04/27 08:55:08;;;;;;;2.87;1.00;;;;;;;10.01;33.39;99324.49;1831996;77;20938;-63
2021/04/27 08:57:36;;;;;;;2.47;1.30;;;;;;;10.07;33.15;99334.20;1844381;77;21587;-62
2021/04/27 09:00:12;;;;;;;1.90;1.00;;;;;;;10.05;33.56;99322.73;1826608;77;22268;-63
2021/04/27 09:02:39;;;;;;;1.90;1.60;;;;;;;9.88;34.70;99318.80;1815703;79;21608;-62
2021/04/27 09:05:22;;;;;;;2.33;1.55;;;;;;;9.73;35.95;99318.44;1815355;79;21175;-63
2021/04/27 09:07:49;;;;;;;2.83;1.60;;;;;;;9.67;36.94;99323.24;1824441;77;21545;-65
2021/04/27 09:10:20;;;;;;;2.52;1.62;;;;;;;9.69;39.79;99318.25;1818369;77;20878;-64
2021/04/27 09:12:56;;;;;;;3.95;2.10;;;;;;;9.68;36.73;99315.83;1848127;77;21378;-64
2021/04/27 09:15:30;;;;;;;2.90;1.50;;;;;;;9.62;37.07;99319.83;1806484;79;20947;-64
2021/04/27 09:17:58;;;;;;;3.58;1.80;;;;;;;9.56;38.18;99321.89;1845505;77;21120;-63
2021/04/27 09:20:25;;;;;;;3.05;1.70;;;;;;;9.51;38.58;99322.83;1831179;77;21598;-65
2021/04/27 09:23:08;;;;;;;4.33;1.45;;;;;;;9.48;39.30;99319.91;1848178;77;21168;-65
2021/04/27 09:25:36;;;;;;;3.67;1.40;;;;;;;9.53;40.12;99325.27;1787722;79;22303;-66
2021/04/27 09:28:03;;;;;;;5.55;2.05;;;;;;;9.60;38.37;99316.03;1812411;77;20952;-64
2021/04/27 09:30:31;;;;;;;2.72;1.60;;;;;;;9.54;36.99;99311.25;1805997;79;21574;-64
2021/04/27 09:33:09;;;;;;;2.42;1.45;;;;;;;9.42;36.87;99321.98;1806162;79;21632;-60
2021/04/27 09:35:43;;;;;;;5.22;1.82;;;;;;;9.36;36.77;99323.22;1806074;79;21044;-60
2021/04/27 09:38:23;;;;;;;6.25;2.33;;;;;;;9.22;36.92;99327.44;1805896;79;21362;-61
2021/04/27 09:41:00;;;;;;;4.67;1.50;;;;;;;9.03;36.42;99329.55;1814011;78;20979;-61
2021/04/27 09:43:36;;;;;;;2.17;1.70;;;;;;;8.82;37.93;99330.58;1818534;78;21007;-61
2021/04/27 09:46:13;;;;;;;2.62;1.50;;;;;;;8.80;38.58;99330.08;1818610;78;21057;-60
2021/04/27 09:48:46;;;;;;;2.00;1.37;;;;;;;8.89;38.78;99339.73;1826133;77;20966;-60
2021/04/27 09:51:20;;;;;;;1.92;1.40;;;;;;;8.97;37.41;99332.72;1819886;78;21369;-60
2021/04/27 09:53:56;;;;;;;1.92;1.27;;;;;;;8.97;37.10;99341.73;1820284;78;20922;-59
2021/04/27 09:56:52;;;;;;;2.40;1.20;;;;;;;8.92;36.69;99336.38;1821395;78;21560;-60
2021/04/27 09:59:28;;;;;;;3.47;2.20;;;;;;;8.90;34.98;99331.77;1821137;78;20966;-60
2021/04/27 10:02:01;;;;;;;2.37;1.45;;;;;;;8.74;35.26;99333.24;1821193;78;21030;-58
2021/04/27 10:04:28;;;;;;;1.72;1.00;;;;;;;8.54;35.33;99331.23;1847509;77;21317;-58
2021/04/27 10:07:00;;;;;;;1.85;1.15;;;;;;;8.41;35.78;99325.23;1850204;77;21001;-59
2021/04/27 10:09:28;;;;;;;1.92;1.32;;;;;;;8.35;35.09;99329.20;1852135;77;21571;-58
2021/04/27 10:11:57;;;;;;;2.17;1.12;;;;;;;8.22;36.34;99328.06;1852091;77;21539;-60
2021/04/27 10:14:25;;;;;;;3.80;1.30;;;;;;;8.12;35.90;99332.92;1852120;77;21650;-59
2021/04/27 10:16:52;;;;;;;2.47;1.52;;;;;;;8.06;37.12;99330.08;1852053;77;23574;-59
2021/04/27 10:19:21;;;;;;;2.45;1.35;;;;;;;8.01;37.28;99337.01;1852006;77;21112;-60
2021/04/27 10:21:49;;;;;;;3.25;1.40;;;;;;;7.92;38.47;99337.72;1852018;77;21121;-59
2021/04/27 10:24:23;;;;;;;5.00;1.70;;;;;;;7.93;38.60;99339.89;1831183;77;20907;-60
2021/04/27 10:26:49;;;;;;;;;;;;;;;8.02;38.48;99340.00;1808139;79;21532;-59
2021/04/27 10:29:21;;;;;;;7.12;2.00;;;;;;;8.17;37.16;99331.45;1809248;79;21898;-59
2021/04/27 10:32:16;;;;;;;1.92;1.00;;;;;;;8.24;36.34;99342.80;1776681;80;21170;-59
2021/04/27 10:35:04;;;;;;;1.50;1.10;;;;;;;8.24;36.90;99348.27;1746352;82;20934;-59
2021/04/27 10:38:07;;;;;;;1.92;1.20;;;;;;;8.21;37.46;99354.34;1746377;82;21509;-60
2021/04/27 10:40:45;;;;;;;3.90;1.40;;;;;;;8.25;37.40;99349.89;1746379;82;21465;-59
2021/04/27 10:43:32;;;;;;;1.47;0.90;;;;;;;8.28;37.15;99341.88;1746438;82;21395;-60
2021/04/27 10:46:07;;;;;;;1.95;1.22;;;;;;;8.26;36.06;99340.56;1746643;82;20954;-58
2021/04/27 10:48:44;;;;;;;1.85;1.05;;;;;;;8.21;36.00;99343.41;1751614;80;20971;-59
2021/04/27 10:51:24;;;;;;;1.90;1.30;;;;;;;8.15;36.02;99338.59;1803500;79;20962;-59
2021/04/27 10:54:15;;;;;;;2.27;1.15;;;;;;;8.19;37.37;99331.96;1735088;81;21740;-59
2021/04/27 10:56:52;;;;;;;3.25;1.15;;;;;;;8.32;36.62;99330.33;1749785;81;21284;-59
2021/04/27 10:59:23;;;;;;;4.35;1.37;;;;;;;8.37;36.88;99333.80;1746406;82;21128;-59
2021/04/27 11:02:24;;;;;;;1.90;1.20;;;;;;;8.43;37.47;99333.95;1746394;80;21178;-59
2021/04/27 11:04:58;;;;;;;5.37;1.00;;;;;;;8.44;37.59;99332.02;1720922;82;21197;-58
2021/04/27 11:07:30;;;;;;;4.55;1.67;;;;;;;8.22;38.63;99332.72;1746468;82;20918;-58
2021/04/27 11:10:06;;;;;;;5.22;1.67;;;;;;;8.00;40.40;99329.92;1746431;82;21415;-59
2021/04/27 11:12:47;;;;;;;2.62;1.62;;;;;;;7.77;43.25;99337.19;1746040;82;21180;-59
2021/04/27 11:15:30;;;;;;;2.37;1.50;;;;;;;7.47;43.90;99346.78;1746500;82;21052;-58
2021/04/27 11:18:14;;;;;;;1.82;1.37;;;;;;;7.11;44.20;99344.64;1721525;82;21547;-58
2021/04/27 11:20:53;;;;;;;4.83;1.85;;;;;;;6.88;45.06;99338.75;1760112;79;21052;-59
2021/04/27 11:26:38;;;;;;;5.50;2.67;;;;;;;6.57;48.74;99341.92;1873368;76;22684;-59
2021/04/27 11:29:16;;;;;;;2.87;1.87;;;;;;;6.39;49.79;99344.63;1841373;78;20908;-60
2021/04/27 11:32:12;;;;;;;4.53;2.45;;;;;;;6.37;50.39;99349.02;1841269;78;21187;-58
2021/04/27 11:35:16;;;;;;;3.55;1.90;;;;;;;6.44;50.65;99357.64;1830151;77;21066;-59
2021/04/27 11:37:52;;;;;;;3.67;1.77;;;;;;;6.38;50.41;99350.64;1808042;78;21329;-58
2021/04/27 11:40:37;;;;;;;3.00;1.80;;;;;;;6.38;50.41;99350.64;1808803;78;21047;-58
2021/04/27 11:43:14;;;;;;;5.72;1.70;;;;;;;6.39;50.82;99338.63;1830257;78;21471;-58
2021/04/27 11:45:45;;;;;;;4.70;2.10;;;;;;;6.58;51.05;99329.91;1818742;78;21369;-58
2021/04/27 11:48:15;;;;;;;2.70;2.15;;;;;;;7.09;49.65;99324.20;1812187;78;21058;-59
2021/04/27 11:50:42;;;;;;;6.33;1.90;;;;;;;7.09;49.65;99324.20;1757598;81;21038;-59
2021/04/27 11:53:16;;;;;;;5.00;3.08;;;;;;;7.20;49.26;99328.39;1753808;81;21057;-58
2021/04/27 11:55:51;;;;;;;3.80;1.82;;;;;;;7.28;49.76;99327.71;1774176;80;21204;-60
2021/04/27 11:58:24;;;;;;;2.65;1.82;;;;;;;7.59;48.91;99323.30;1773685;80;21381;-59
2021/04/27 12:01:00;;;;;;;2.85;1.87;;;;;;;8.05;46.47;99315.59;1753977;81;21725;-61
2021/04/27 12:03:35;;;;;;;5.40;2.27;;;;;;;8.36;45.90;99319.88;1773794;80;21144;-59
2021/04/27 12:06:14;;;;;;;3.55;2.02;;;;;;;8.48;44.60;99313.88;1772071;80;21175;-58